createdAt,value
2023-02-10T00:02:07.484Z,24.30
2023-02-10T00:05:17.850Z,24.60
2023-02-10T00:08:19.251Z,25.20
2023-02-10T00:11:11.767Z,24.50
2023-02-10T00:13:52.784Z,26.10
2023-02-10T00:16:25.003Z,25.40
2023-02-10T00:18:59.447Z,22.40
2023-02-10T00:21:31.341Z,24.70
2023-02-10T00:24:04.272Z,25.90
2023-02-10T00:26:51.090Z,22.60
2023-02-10T00:29:22.624Z,24.10
2023-02-10T00:32:08.977Z,25.40
2023-02-10T00:34:40.690Z,25.30
2023-02-10T00:37:16.121Z,24.00
2023-02-10T00:39:56.638Z,23.70
2023-02-10T00:42:34.490Z,25.10
2023-02-10T00:45:10.272Z,24.00
2023-02-10T00:47:42.116Z,23.70
2023-02-10T00:50:14.100Z,26.40
2023-02-10T00:52:42.779Z,24.20
2023-02-10T00:55:11.695Z,25.90
2023-02-10T00:57:43.306Z,24.70
2023-02-10T01:00:12.393Z,23.90
2023-02-10T01:02:41.350Z,27.40
2023-02-10T01:05:15.703Z,25.00
2023-02-10T01:07:54.187Z,25.10
2023-02-10T01:10:29.450Z,23.30
2023-02-10T01:12:58.278Z,22.60
2023-02-10T01:15:44.389Z,24.10
2023-02-10T01:18:14.713Z,23.20
2023-02-10T01:21:08.877Z,25.00
2023-02-10T01:24:01.933Z,23.40
2023-02-10T01:26:36.385Z,24.60
2023-02-10T01:29:13.182Z,25.00
2023-02-10T01:31:45.420Z,23.70
2023-02-10T01:34:19.717Z,23.20
2023-02-10T01:37:00.276Z,21.90
2023-02-10T01:39:31.175Z,23.20
2023-02-10T01:42:02.598Z,20.30
2023-02-10T01:44:36.794Z,22.80
2023-02-10T01:47:16.074Z,23.80
2023-02-10T01:49:56.270Z,22.50
2023-02-10T01:52:34.811Z,24.60
2023-02-10T01:55:16.958Z,24.20
2023-02-10T01:57:49.858Z,19.00
2023-02-10T02:00:38.609Z,21.90
2023-02-10T02:03:22.499Z,21.70
2023-02-10T02:05:58.093Z,20.10
2023-02-10T02:08:32.196Z,22.60
2023-02-10T02:11:42.404Z,24.20
2023-02-10T02:15:01.518Z,23.30
2023-02-10T02:17:32.415Z,22.70
2023-02-10T02:20:40.305Z,21.30
2023-02-10T02:23:22.256Z,24.60
2023-02-10T02:26:10.361Z,21.00
2023-02-10T02:29:07.323Z,24.60
2023-02-10T02:31:59.083Z,22.80
2023-02-10T02:35:03.802Z,23.60
2023-02-10T02:37:46.770Z,21.50
2023-02-10T02:40:21.004Z,22.80
2023-02-10T02:45:31.422Z,22.50
2023-02-10T02:48:35.597Z,21.90
2023-02-10T02:51:16.394Z,24.00
2023-02-10T02:54:16.767Z,27.10
2023-02-10T02:56:57.721Z,25.10
2023-02-10T02:59:53.501Z,24.20
2023-02-10T03:02:35.977Z,23.20
2023-02-10T03:05:10.242Z,25.90
2023-02-10T03:07:41.455Z,24.90
2023-02-10T03:10:10.958Z,21.90
2023-02-10T03:12:39.656Z,23.90
2023-02-10T03:15:16.672Z,24.50
2023-02-10T03:18:10.485Z,25.00
2023-02-10T03:20:53.835Z,26.80
2023-02-10T03:23:26.441Z,25.50
2023-02-10T03:25:58.065Z,25.90
2023-02-10T03:28:28.296Z,24.50
2023-02-10T03:30:59.810Z,23.00
2023-02-10T03:33:37.108Z,26.20
2023-02-10T03:36:06.457Z,24.40
2023-02-10T03:38:40.915Z,25.60
2023-02-10T03:41:14.795Z,23.10
2023-02-10T03:43:43.595Z,24.30
2023-02-10T03:46:13.134Z,22.80
2023-02-10T03:48:41.633Z,21.90
2023-02-10T03:51:13.428Z,25.70
2023-02-10T03:53:54.673Z,22.00
2023-02-10T03:56:26.100Z,27.00
2023-02-10T03:59:06.546Z,23.90
2023-02-10T04:01:43.617Z,25.30
2023-02-10T04:04:12.688Z,23.50
2023-02-10T04:06:42.297Z,29.40
2023-02-10T04:09:17.774Z,26.90
2023-02-10T04:11:46.285Z,24.10
2023-02-10T04:14:23.868Z,23.40
2023-02-10T04:16:56.686Z,24.50
2023-02-10T04:19:39.050Z,21.50
2023-02-10T04:22:07.970Z,24.40
2023-02-10T04:24:42.447Z,23.30
2023-02-10T04:27:20.676Z,24.40
2023-02-10T04:30:07.069Z,25.10
2023-02-10T04:32:56.422Z,24.80
2023-02-10T04:35:25.200Z,24.90
2023-02-10T04:37:57.736Z,27.50
2023-02-10T04:40:33.926Z,24.90
2023-02-10T04:43:22.160Z,26.90
2023-02-10T04:46:09.223Z,25.30
2023-02-10T04:48:40.451Z,27.90
2023-02-10T04:51:27.785Z,26.20
2023-02-10T04:53:56.984Z,32.20
2023-02-10T04:56:25.628Z,29.40
2023-02-10T04:59:01.920Z,30.60
2023-02-10T05:01:33.783Z,26.20
2023-02-10T05:04:03.538Z,27.70
2023-02-10T05:06:46.005Z,26.80
2023-02-10T05:09:17.457Z,26.50
2023-02-10T05:12:02.652Z,27.10
2023-02-10T05:14:33.225Z,30.60
2023-02-10T05:17:25.629Z,33.60
2023-02-10T05:20:02.897Z,31.40
2023-02-10T05:23:15.186Z,30.00
2023-02-10T05:25:56.031Z,28.40
2023-02-10T05:28:34.641Z,34.50
2023-02-10T05:31:25.323Z,26.00
2023-02-10T05:34:07.082Z,26.80
2023-02-10T05:36:46.660Z,29.00
2023-02-10T05:39:28.995Z,25.00
2023-02-10T05:42:00.547Z,23.60
2023-02-10T05:45:10.738Z,26.80
2023-02-10T05:47:43.601Z,25.40
2023-02-10T05:50:42.739Z,26.40
2023-02-10T05:53:17.060Z,27.70
2023-02-10T05:55:56.131Z,27.20
2023-02-10T05:58:24.998Z,26.00
2023-02-10T06:01:01.574Z,27.90
2023-02-10T06:03:32.996Z,26.50
2023-02-10T06:06:15.600Z,26.00
2023-02-10T06:08:47.475Z,31.00
2023-02-10T06:11:23.787Z,26.40
2023-02-10T06:13:55.063Z,30.50
2023-02-10T06:16:28.008Z,27.30
2023-02-10T06:19:08.701Z,23.90
2023-02-10T06:21:44.820Z,29.10
2023-02-10T06:24:16.126Z,25.90
2023-02-10T06:26:53.552Z,29.40
2023-02-10T06:29:30.100Z,25.80
2023-02-10T06:32:00.613Z,28.90
2023-02-10T06:34:30.417Z,27.20
2023-02-10T06:37:02.903Z,27.20
2023-02-10T06:39:37.967Z,28.20
2023-02-10T06:42:08.679Z,31.40
2023-02-10T06:44:54.097Z,34.70
2023-02-10T06:47:30.068Z,58.10
2023-02-10T06:50:14.827Z,43.70
2023-02-10T06:52:51.615Z,53.10
2023-02-10T06:55:25.551Z,57.30
2023-02-10T06:57:54.505Z,37.10
2023-02-10T07:00:23.992Z,29.70
2023-02-10T07:02:55.754Z,27.40
2023-02-10T07:05:26.363Z,30.10
2023-02-10T07:08:00.367Z,28.90
2023-02-10T07:10:29.748Z,31.60
2023-02-10T07:13:00.679Z,28.70
2023-02-10T07:15:30.340Z,30.20
2023-02-10T07:17:58.703Z,33.70
2023-02-10T07:20:27.782Z,29.80
2023-02-10T07:22:56.148Z,30.30
2023-02-10T07:25:27.005Z,29.00
2023-02-10T07:27:55.436Z,29.90
2023-02-10T07:30:23.786Z,28.30
2023-02-10T07:32:52.352Z,41.50
2023-02-10T07:35:52.132Z,36.80
2023-02-10T07:38:24.621Z,34.40
2023-02-10T07:40:56.383Z,33.50
2023-02-10T07:43:27.274Z,31.20
2023-02-10T07:46:09.375Z,32.70
2023-02-10T07:48:43.308Z,35.20
2023-02-10T07:55:05.643Z,32.30
2023-02-10T07:57:40.057Z,33.80
2023-02-10T08:00:09.926Z,32.50
2023-02-10T08:02:39.372Z,32.90
2023-02-10T08:05:08.112Z,31.20
2023-02-10T08:07:47.125Z,33.30
2023-02-10T08:10:16.370Z,36.10
2023-02-10T08:12:58.328Z,36.70
2023-02-10T08:15:35.702Z,36.60
2023-02-10T08:18:13.986Z,35.20
2023-02-10T08:20:49.057Z,29.80
2023-02-10T08:23:20.826Z,34.80
2023-02-10T08:25:52.264Z,36.80
2023-02-10T08:37:39.290Z,36.20
2023-02-10T08:40:24.034Z,33.90
2023-02-10T08:42:55.179Z,35.30
2023-02-10T08:45:28.793Z,32.30
2023-02-10T08:48:02.938Z,37.40
2023-02-10T08:50:40.270Z,37.60
2023-02-10T08:53:12.224Z,33.60
2023-02-10T08:56:08.134Z,35.60
2023-02-10T08:58:59.310Z,28.90
2023-02-10T09:04:10.832Z,34.90
2023-02-10T09:06:45.364Z,34.50
2023-02-10T09:09:25.826Z,32.90
2023-02-10T09:11:57.157Z,28.10
2023-02-10T09:14:36.073Z,32.80
2023-02-10T09:17:06.997Z,33.20
2023-02-10T09:19:40.024Z,33.30
2023-02-10T09:22:11.099Z,34.70
2023-02-10T09:24:39.619Z,32.90
2023-02-10T09:27:10.074Z,35.80
2023-02-10T09:29:42.093Z,38.80
2023-02-10T09:32:13.138Z,36.20
2023-02-10T09:34:42.639Z,30.60
2023-02-10T09:37:14.317Z,32.80
2023-02-10T09:39:44.742Z,31.40
2023-02-10T09:42:38.126Z,31.40
2023-02-10T09:45:20.133Z,35.30
2023-02-10T09:48:27.137Z,33.70
2023-02-10T09:51:28.876Z,34.80
2023-02-10T09:53:57.515Z,37.90
2023-02-10T09:56:39.515Z,33.40
2023-02-10T09:59:15.694Z,29.00
2023-02-10T10:01:49.431Z,33.70
2023-02-10T10:04:23.493Z,31.20
2023-02-10T10:07:07.107Z,35.80
2023-02-10T10:09:44.972Z,31.30
2023-02-10T10:12:18.598Z,28.10
2023-02-10T10:14:55.231Z,30.30
2023-02-10T10:17:58.605Z,34.30
2023-02-10T10:20:36.262Z,31.30
2023-02-10T10:23:34.168Z,34.40
2023-02-10T10:26:35.433Z,29.60
2023-02-10T10:29:34.598Z,34.20
2023-02-10T10:32:40.675Z,34.00
2023-02-10T10:35:25.417Z,34.70
2023-02-10T10:37:54.561Z,33.50
2023-02-10T10:40:33.922Z,34.00
2023-02-10T10:43:03.631Z,31.20
2023-02-10T10:45:47.890Z,37.10
2023-02-10T10:48:28.239Z,33.60
2023-02-10T10:51:02.622Z,36.00
2023-02-10T10:53:43.630Z,31.60
2023-02-10T10:59:01.013Z,28.90
2023-02-10T11:01:41.925Z,30.60
2023-02-10T11:04:26.483Z,33.10
2023-02-10T11:07:15.142Z,28.60
2023-02-10T11:09:52.773Z,32.40
2023-02-10T11:12:51.974Z,32.10
2023-02-10T11:15:43.450Z,32.10
2023-02-10T11:18:23.693Z,35.80
2023-02-10T11:20:58.623Z,29.00
2023-02-10T11:23:28.467Z,29.80
2023-02-10T11:26:04.176Z,27.80
2023-02-10T11:28:35.159Z,29.90
2023-02-10T11:31:36.180Z,29.50
2023-02-10T11:34:18.153Z,35.90
2023-02-10T11:36:46.834Z,38.10
2023-02-10T11:39:56.740Z,33.60
2023-02-10T11:42:44.170Z,35.30
2023-02-10T11:45:33.646Z,33.50
2023-02-10T11:48:21.644Z,27.40
2023-02-10T11:51:13.964Z,31.70
2023-02-10T11:53:48.406Z,30.40
2023-02-10T11:56:46.599Z,31.20
2023-02-10T11:59:36.352Z,34.40
2023-02-10T12:02:09.963Z,28.80
2023-02-10T12:04:45.911Z,26.90
2023-02-10T12:08:00.382Z,27.70
2023-02-10T12:10:48.158Z,32.90
2023-02-10T12:13:31.317Z,31.00
2023-02-10T12:16:27.242Z,33.80
2023-02-10T12:19:12.532Z,28.40
2023-02-10T12:22:09.393Z,31.00
2023-02-10T12:25:06.635Z,33.50
2023-02-10T12:28:13.635Z,31.30
2023-02-10T12:30:48.364Z,28.50
2023-02-10T12:33:42.707Z,32.50
2023-02-10T12:36:50.051Z,26.80
2023-02-10T12:39:42.728Z,29.50
2023-02-10T12:42:54.873Z,29.70
2023-02-10T12:45:44.247Z,27.60
2023-02-10T12:49:11.441Z,31.60
2023-02-10T12:52:13.584Z,27.80
2023-02-10T12:55:05.598Z,27.60
2023-02-10T12:57:46.695Z,25.50
2023-02-10T13:00:29.397Z,28.40
2023-02-10T13:03:09.888Z,28.90
2023-02-10T13:05:53.942Z,31.10
2023-02-10T13:08:28.761Z,28.50
2023-02-10T13:11:07.328Z,25.60
2023-02-10T13:13:39.986Z,28.90
2023-02-10T13:16:24.557Z,27.60
2023-02-10T13:20:09.932Z,28.30
2023-02-10T13:23:41.150Z,26.20
2023-02-10T13:27:02.284Z,28.00
2023-02-10T13:29:53.407Z,28.80
2023-02-10T13:32:33.175Z,26.70
2023-02-10T13:35:06.960Z,25.50
2023-02-10T13:37:47.130Z,25.60
2023-02-10T13:40:37.917Z,30.90
2023-02-10T13:43:09.155Z,28.80
2023-02-10T13:45:38.581Z,26.80
2023-02-10T13:48:35.168Z,26.40
2023-02-10T13:51:13.596Z,24.30
2023-02-10T13:53:45.346Z,28.30
2023-02-10T13:56:19.338Z,23.20
2023-02-10T13:58:57.956Z,26.10
2023-02-10T14:01:48.194Z,27.10
2023-02-10T14:04:22.698Z,29.10
2023-02-10T14:07:18.240Z,27.30
2023-02-10T14:10:30.085Z,26.70
2023-02-10T14:13:21.452Z,28.40
2023-02-10T14:16:09.345Z,25.80
2023-02-10T14:18:40.448Z,29.40
2023-02-10T14:21:19.799Z,26.60
2023-02-10T14:23:58.270Z,29.40
2023-02-10T14:26:36.706Z,29.80
2023-02-10T14:29:20.729Z,27.10
2023-02-10T14:32:03.218Z,27.80
2023-02-10T14:34:34.681Z,28.60
2023-02-10T14:37:19.878Z,27.50
2023-02-10T14:39:54.079Z,27.20
2023-02-10T14:42:28.910Z,28.60
2023-02-10T14:45:32.830Z,26.40
2023-02-10T14:48:07.205Z,31.30
2023-02-10T14:50:39.588Z,29.00
2023-02-10T14:53:19.278Z,27.40
2023-02-10T14:56:12.440Z,27.40
2023-02-10T14:58:47.568Z,26.30
2023-02-10T15:01:41.690Z,29.60
2023-02-10T15:04:18.911Z,30.50
2023-02-10T15:06:50.411Z,28.40
2023-02-10T15:09:33.649Z,28.90
2023-02-10T15:12:13.076Z,27.60
2023-02-10T15:15:04.660Z,29.80
2023-02-10T15:18:03.742Z,30.20
2023-02-10T15:20:33.900Z,30.20
2023-02-10T15:23:03.021Z,28.20
2023-02-10T15:25:33.358Z,30.90
2023-02-10T15:28:34.370Z,31.30
2023-02-10T15:31:15.262Z,34.10
2023-02-10T15:33:49.565Z,31.10
2023-02-10T15:36:35.239Z,30.90
2023-02-10T15:39:27.430Z,35.80
2023-02-10T15:42:06.292Z,31.00
2023-02-10T15:44:44.802Z,33.10
2023-02-10T15:47:15.997Z,28.90
2023-02-10T15:50:05.130Z,29.80
2023-02-10T15:53:03.918Z,33.30
2023-02-10T15:55:37.047Z,33.20
2023-02-10T15:58:08.023Z,31.60
2023-02-10T16:00:38.402Z,34.70
2023-02-10T16:03:07.684Z,34.50
2023-02-10T16:05:42.740Z,36.50
2023-02-10T16:08:22.964Z,34.30
2023-02-10T16:10:51.881Z,33.50
2023-02-10T16:13:25.633Z,33.10
2023-02-10T16:15:55.387Z,34.80
2023-02-10T16:18:30.672Z,33.20
2023-02-10T16:21:01.138Z,37.80
2023-02-10T16:23:31.585Z,36.00
2023-02-10T16:26:00.641Z,32.00
2023-02-10T16:28:30.880Z,33.40
2023-02-10T16:30:59.815Z,38.90
2023-02-10T16:33:28.517Z,39.30
2023-02-10T16:36:05.763Z,34.80
2023-02-10T16:38:39.808Z,30.80
2023-02-10T16:41:11.608Z,39.90
2023-02-10T16:43:43.380Z,37.00
2023-02-10T16:46:17.528Z,37.20
2023-02-10T16:48:48.648Z,36.00
2023-02-10T16:51:17.934Z,37.80
2023-02-10T16:53:57.342Z,34.20
2023-02-10T16:56:31.030Z,33.50
2023-02-10T16:59:02.995Z,38.20
2023-02-10T17:01:32.554Z,32.90
2023-02-10T17:04:02.567Z,36.00
2023-02-10T17:06:34.409Z,40.70
2023-02-10T17:09:02.990Z,34.70
2023-02-10T17:11:34.669Z,41.20
2023-02-10T17:14:03.334Z,45.20
2023-02-10T17:16:58.160Z,44.30
2023-02-10T17:19:33.629Z,76.40
2023-02-10T17:22:06.978Z,108.40
2023-02-10T17:24:36.164Z,73.20
2023-02-10T17:27:14.566Z,66.40
2023-02-10T17:29:46.328Z,48.90
2023-02-10T17:32:16.892Z,37.10
2023-02-10T17:34:46.042Z,40.60
2023-02-10T17:37:17.652Z,45.50
2023-02-10T17:39:57.136Z,40.10
2023-02-10T17:42:31.538Z,43.40
2023-02-10T17:45:03.744Z,38.10
2023-02-10T17:47:32.629Z,43.70
2023-02-10T17:50:06.629Z,42.00
2023-02-10T17:52:35.832Z,40.10
2023-02-10T17:55:22.262Z,44.70
2023-02-10T17:57:59.318Z,62.70
2023-02-10T18:00:28.197Z,69.20
2023-02-10T18:03:05.687Z,47.00
2023-02-10T18:05:45.155Z,44.00
2023-02-10T18:08:16.793Z,39.90
2023-02-10T18:10:45.663Z,40.20
2023-02-10T18:13:30.419Z,46.10
2023-02-10T18:16:05.453Z,35.80
2023-02-10T18:18:34.304Z,47.70
2023-02-10T18:21:06.626Z,43.40
2023-02-10T18:23:36.448Z,46.60
2023-02-10T18:26:06.254Z,102.40
2023-02-10T18:28:35.128Z,53.40
2023-02-10T18:31:04.086Z,100.80
2023-02-10T18:33:38.132Z,76.50
2023-02-10T18:36:09.464Z,81.70
2023-02-10T18:38:39.758Z,50.60
2023-02-10T18:41:10.532Z,41.70
2023-02-10T18:43:52.097Z,42.60
2023-02-10T18:46:21.532Z,37.90
2023-02-10T18:48:50.562Z,45.20
2023-02-10T18:51:23.465Z,37.70
2023-02-10T18:53:52.825Z,56.70
2023-02-10T18:56:22.752Z,82.30
2023-02-10T18:58:51.385Z,105.30
2023-02-10T19:01:25.826Z,99.00
2023-02-10T19:03:55.038Z,122.10
2023-02-10T19:06:24.022Z,63.60
2023-02-10T19:08:52.697Z,47.30
2023-02-10T19:11:23.812Z,52.60
2023-02-10T19:13:52.841Z,49.10
2023-02-10T19:16:22.514Z,113.60
2023-02-10T19:19:00.375Z,51.10
2023-02-10T19:21:33.194Z,40.30
2023-02-10T19:24:02.081Z,61.30
2023-02-10T19:26:36.645Z,75.60
2023-02-10T19:29:08.982Z,86.40
2023-02-10T19:31:52.555Z,64.40
2023-02-10T19:34:21.717Z,67.80
2023-02-10T19:36:58.526Z,72.90
2023-02-10T19:39:30.404Z,83.30
2023-02-10T19:41:59.112Z,166.90
2023-02-10T19:44:36.469Z,100.30
2023-02-10T19:47:05.291Z,74.00
2023-02-10T19:49:34.092Z,70.90
2023-02-10T19:52:02.891Z,56.50
2023-02-10T19:54:31.431Z,41.30
2023-02-10T19:56:59.923Z,45.00
2023-02-10T19:59:28.331Z,43.00
2023-02-10T20:01:56.795Z,54.80
2023-02-10T20:04:28.184Z,47.90
2023-02-10T20:07:02.879Z,48.50
2023-02-10T20:09:32.353Z,60.30
2023-02-10T20:12:00.754Z,71.90
2023-02-10T20:14:31.795Z,60.40
2023-02-10T20:17:01.201Z,60.30
2023-02-10T20:19:29.754Z,67.40
2023-02-10T20:21:58.588Z,60.10
2023-02-10T20:24:27.344Z,52.30
2023-02-10T20:27:28.125Z,46.70
2023-02-10T20:30:12.190Z,41.60
2023-02-10T20:32:41.012Z,36.00
2023-02-10T20:35:10.417Z,47.30
2023-02-10T20:37:39.424Z,45.80
2023-02-10T20:40:08.756Z,108.40
2023-02-10T20:42:43.335Z,48.10
2023-02-10T20:45:11.882Z,39.80
2023-02-10T20:47:40.497Z,34.70
2023-02-10T20:50:09.548Z,40.60
2023-02-10T20:52:45.238Z,38.20
2023-02-10T20:55:25.254Z,36.70
2023-02-10T20:57:53.824Z,41.00
2023-02-10T21:00:22.543Z,37.40
2023-02-10T21:02:51.711Z,38.80
2023-02-10T21:05:21.828Z,39.30
2023-02-10T21:08:03.714Z,106.50
2023-02-10T21:10:32.789Z,51.00
2023-02-10T21:13:01.277Z,38.50
2023-02-10T21:18:01.405Z,34.40
2023-02-10T21:20:31.312Z,35.90
2023-02-10T21:23:00.498Z,36.30
2023-02-10T21:25:33.089Z,30.00
2023-02-10T21:28:01.652Z,32.70
2023-02-10T21:30:31.286Z,33.70
2023-02-10T21:33:02.035Z,35.20
2023-02-10T21:35:52.775Z,35.80
2023-02-10T21:38:23.628Z,28.70
2023-02-10T21:41:03.137Z,32.90
2023-02-10T21:43:32.804Z,33.60
2023-02-10T21:46:07.998Z,35.70
2023-02-10T21:48:36.591Z,35.70
2023-02-10T21:51:11.967Z,33.80
2023-02-10T21:53:41.050Z,34.80
2023-02-10T21:56:09.454Z,36.70
2023-02-10T21:58:37.843Z,31.80
2023-02-10T22:01:11.703Z,34.40
2023-02-10T22:03:40.348Z,33.60
2023-02-10T22:06:09.683Z,31.50
2023-02-10T22:08:38.197Z,31.70
2023-02-10T22:11:09.902Z,30.00
2023-02-10T22:13:39.924Z,40.00
2023-02-10T22:16:11.442Z,30.20
2023-02-10T22:18:40.595Z,34.00
2023-02-10T22:21:12.362Z,35.20
2023-02-10T22:23:41.826Z,32.20
2023-02-10T22:26:13.148Z,32.80
2023-02-10T22:28:42.578Z,32.40
2023-02-10T22:31:16.956Z,34.30
2023-02-10T22:33:51.714Z,34.10
2023-02-10T22:36:23.931Z,34.80
2023-02-10T22:38:54.358Z,34.40
2023-02-10T22:41:26.783Z,34.80
2023-02-10T22:44:01.283Z,38.60
2023-02-10T22:46:30.573Z,34.00
2023-02-10T22:48:59.840Z,36.10
2023-02-10T22:51:29.889Z,38.30
2023-02-10T22:54:08.565Z,33.00
2023-02-10T22:56:39.786Z,35.60
2023-02-10T22:59:09.662Z,34.20
2023-02-10T23:01:43.454Z,30.30
2023-02-10T23:04:14.654Z,33.00
2023-02-10T23:06:43.802Z,33.50
2023-02-10T23:09:14.749Z,36.40
2023-02-10T23:11:49.700Z,37.30
2023-02-10T23:14:18.495Z,34.00
2023-02-10T23:16:54.773Z,33.80
2023-02-10T23:19:25.739Z,27.60
2023-02-10T23:21:54.069Z,37.50
2023-02-10T23:24:22.439Z,35.60
2023-02-10T23:26:50.978Z,33.70
2023-02-10T23:29:19.316Z,29.00
2023-02-10T23:31:47.966Z,34.00
2023-02-10T23:34:17.651Z,34.30
2023-02-10T23:36:48.296Z,35.30
2023-02-10T23:39:17.050Z,31.50
2023-02-10T23:41:47.285Z,36.10
2023-02-10T23:44:17.317Z,35.10
2023-02-10T23:46:48.311Z,31.10
2023-02-10T23:49:19.823Z,35.60
2023-02-10T23:51:50.191Z,33.70
2023-02-10T23:54:18.665Z,38.00
2023-02-10T23:56:47.247Z,34.30
2023-02-10T23:59:15.874Z,33.60
